createdAt,value
2023-08-17T00:00:32.151Z,22.19
2023-08-17T00:03:08.507Z,22.32
2023-08-17T00:05:21.988Z,22.30
2023-08-17T00:07:35.100Z,22.68
2023-08-17T00:09:47.813Z,22.61
2023-08-17T00:12:00.706Z,22.78
2023-08-17T00:14:32.892Z,22.89
2023-08-17T00:16:48.656Z,22.94
2023-08-17T00:19:01.515Z,23.01
2023-08-17T00:21:14.120Z,23.18
2023-08-17T00:23:26.912Z,22.99
2023-08-17T00:25:49.825Z,22.87
2023-08-17T00:28:03.289Z,22.64
2023-08-17T00:30:19.845Z,22.89
2023-08-17T00:32:32.687Z,22.97
2023-08-17T00:34:48.623Z,23.27
2023-08-17T00:37:03.325Z,23.21
2023-08-17T00:39:19.107Z,23.28
2023-08-17T00:41:32.742Z,23.25
2023-08-17T00:43:45.607Z,23.32
2023-08-17T00:46:03.938Z,23.48
2023-08-17T00:48:17.782Z,23.68
2023-08-17T00:50:31.603Z,23.51
2023-08-17T00:52:48.914Z,23.58
2023-08-17T00:55:05.505Z,23.49
2023-08-17T00:57:18.365Z,23.50
2023-08-17T00:59:36.449Z,23.54
2023-08-17T01:01:50.346Z,23.50
2023-08-17T01:04:03.024Z,23.35
2023-08-17T01:06:16.431Z,23.46
2023-08-17T01:08:30.684Z,23.47
2023-08-17T01:10:52.208Z,23.63
2023-08-17T01:13:13.621Z,23.59
2023-08-17T01:15:31.955Z,23.40
2023-08-17T01:17:52.347Z,23.48
2023-08-17T01:20:07.856Z,23.39
2023-08-17T01:22:25.335Z,23.62
2023-08-17T01:24:41.382Z,23.48
2023-08-17T01:26:54.386Z,23.34
2023-08-17T01:29:08.089Z,23.34
2023-08-17T01:31:30.053Z,23.41
2023-08-17T01:33:52.296Z,23.27
2023-08-17T01:36:17.446Z,23.27
2023-08-17T01:38:33.583Z,23.23
2023-08-17T01:40:47.315Z,23.20
2023-08-17T01:43:01.198Z,23.18
2023-08-17T01:45:15.942Z,23.11
2023-08-17T01:47:38.081Z,23.06
2023-08-17T01:49:54.262Z,23.05
2023-08-17T01:52:17.132Z,23.20
2023-08-17T01:54:30.444Z,23.28
2023-08-17T01:56:53.160Z,23.54
2023-08-17T01:59:05.905Z,23.30
2023-08-17T02:01:18.295Z,23.21
2023-08-17T02:03:31.461Z,23.21
2023-08-17T02:05:47.967Z,23.02
2023-08-17T02:08:05.512Z,22.81
2023-08-17T02:10:22.496Z,22.74
2023-08-17T02:12:38.242Z,22.79
2023-08-17T02:14:50.987Z,22.70
2023-08-17T02:17:12.552Z,22.54
2023-08-17T02:19:45.113Z,22.46
2023-08-17T02:21:58.505Z,22.49
2023-08-17T02:24:15.528Z,22.50
2023-08-17T02:26:28.369Z,22.58
2023-08-17T02:28:41.300Z,22.64
2023-08-17T02:30:59.402Z,22.61
2023-08-17T02:33:13.919Z,22.57
2023-08-17T02:35:27.590Z,22.68
2023-08-17T02:37:40.494Z,22.53
2023-08-17T02:40:14.820Z,22.57
2023-08-17T02:42:27.290Z,22.52
2023-08-17T02:44:40.941Z,22.50
2023-08-17T02:46:55.411Z,22.48
2023-08-17T02:49:09.229Z,22.62
2023-08-17T02:51:22.942Z,22.67
2023-08-17T02:53:35.696Z,22.88
2023-08-17T02:55:48.413Z,22.89
2023-08-17T02:58:01.828Z,22.90
2023-08-17T03:00:17.466Z,23.08
2023-08-17T03:02:31.887Z,22.90
2023-08-17T03:04:55.009Z,22.96
2023-08-17T03:07:08.043Z,23.14
2023-08-17T03:09:21.647Z,23.39
2023-08-17T03:11:34.306Z,23.65
2023-08-17T03:13:47.901Z,23.28
2023-08-17T03:16:02.236Z,23.69
2023-08-17T03:18:24.309Z,23.51
2023-08-17T03:20:57.178Z,23.39
2023-08-17T03:23:11.258Z,23.35
2023-08-17T03:25:25.363Z,23.57
2023-08-17T03:27:38.599Z,23.53
2023-08-17T03:29:55.280Z,23.63
2023-08-17T03:32:09.046Z,23.70
2023-08-17T03:34:21.926Z,23.66
2023-08-17T03:36:34.772Z,23.84
2023-08-17T03:38:47.371Z,23.82
2023-08-17T03:41:00.420Z,24.11
2023-08-17T03:43:13.156Z,24.17
2023-08-17T03:45:26.862Z,24.31
2023-08-17T03:47:40.005Z,24.29
2023-08-17T03:49:52.759Z,24.72
2023-08-17T03:52:05.800Z,24.81
2023-08-17T03:54:22.560Z,25.05
2023-08-17T03:56:35.710Z,25.10
2023-08-17T03:58:48.438Z,25.30
2023-08-17T04:01:01.099Z,25.19
2023-08-17T04:03:17.388Z,25.52
2023-08-17T04:05:30.133Z,25.46
2023-08-17T04:07:43.126Z,25.38
2023-08-17T04:09:56.071Z,25.40
2023-08-17T04:12:18.975Z,25.33
2023-08-17T04:14:35.191Z,25.46
2023-08-17T04:16:48.888Z,25.41
2023-08-17T04:19:01.411Z,25.59
2023-08-17T04:21:16.767Z,25.64
2023-08-17T04:23:29.506Z,25.81
2023-08-17T04:25:42.464Z,25.96
2023-08-17T04:27:55.494Z,26.04
2023-08-17T04:30:09.392Z,26.08
2023-08-17T04:32:30.140Z,25.97
2023-08-17T04:34:43.141Z,26.02
2023-08-17T04:36:55.786Z,26.03
2023-08-17T04:39:10.231Z,26.02
2023-08-17T04:41:22.815Z,26.15
2023-08-17T04:43:38.900Z,26.13
2023-08-17T04:45:55.478Z,26.23
2023-08-17T04:48:09.811Z,26.35
2023-08-17T04:50:23.455Z,26.34
2023-08-17T04:52:35.965Z,26.32
2023-08-17T04:54:52.029Z,26.40
2023-08-17T04:57:08.448Z,26.55
2023-08-17T04:59:21.597Z,26.62
2023-08-17T05:01:34.365Z,26.74
2023-08-17T05:03:47.693Z,26.55
2023-08-17T05:06:01.081Z,26.61
2023-08-17T05:08:14.207Z,26.76
2023-08-17T05:10:27.395Z,26.89
2023-08-17T05:12:41.136Z,27.04
2023-08-17T05:14:53.835Z,26.98
2023-08-17T05:17:11.601Z,27.03
2023-08-17T05:19:24.998Z,26.95
2023-08-17T05:21:39.819Z,27.29
2023-08-17T05:23:54.780Z,27.33
2023-08-17T05:26:07.837Z,27.22
2023-08-17T05:28:24.797Z,27.61
2023-08-17T05:30:41.786Z,27.69
2023-08-17T05:32:55.215Z,27.53
2023-08-17T05:35:08.974Z,27.62
2023-08-17T05:37:25.275Z,27.79
2023-08-17T05:39:41.507Z,27.93
2023-08-17T05:41:55.424Z,27.80
2023-08-17T05:44:09.110Z,28.02
2023-08-17T05:46:24.530Z,28.21
2023-08-17T05:48:46.195Z,28.21
2023-08-17T05:50:59.492Z,28.48
2023-08-17T05:53:15.517Z,28.73
2023-08-17T05:55:28.428Z,28.58
2023-08-17T05:57:41.547Z,28.77
2023-08-17T05:59:54.163Z,28.89
2023-08-17T06:02:07.491Z,29.05
2023-08-17T06:04:24.300Z,29.18
2023-08-17T06:06:37.725Z,29.47
2023-08-17T06:08:50.335Z,29.59
2023-08-17T06:11:03.148Z,29.71
2023-08-17T06:13:18.872Z,29.89
2023-08-17T06:15:43.541Z,30.19
2023-08-17T06:17:59.799Z,30.25
2023-08-17T06:20:22.609Z,30.41
2023-08-17T06:22:35.280Z,30.76
2023-08-17T06:24:51.402Z,30.88
2023-08-17T06:27:04.373Z,31.03
2023-08-17T06:29:17.051Z,31.09
2023-08-17T06:31:30.220Z,31.03
2023-08-17T06:33:43.455Z,31.14
2023-08-17T06:35:56.580Z,31.46
2023-08-17T06:38:10.502Z,31.47
2023-08-17T06:40:27.536Z,31.75
2023-08-17T06:42:40.327Z,31.82
2023-08-17T06:44:53.419Z,31.89
2023-08-17T06:47:15.750Z,32.06
2023-08-17T06:49:28.741Z,32.13
2023-08-17T06:51:41.597Z,32.32
2023-08-17T06:53:56.846Z,32.50
2023-08-17T06:56:09.658Z,32.57
2023-08-17T06:58:25.244Z,32.70
2023-08-17T07:00:42.887Z,33.01
2023-08-17T07:03:00.844Z,33.39
2023-08-17T07:05:17.267Z,33.71
2023-08-17T07:07:29.843Z,33.98
2023-08-17T07:09:42.474Z,34.10
2023-08-17T07:11:57.615Z,34.29
2023-08-17T07:14:13.198Z,34.37
2023-08-17T07:16:29.797Z,34.52
2023-08-17T07:18:52.391Z,34.63
2023-08-17T07:21:08.188Z,34.69
2023-08-17T07:23:20.978Z,34.72
2023-08-17T07:25:33.589Z,34.86
2023-08-17T07:27:46.460Z,34.77
2023-08-17T07:29:59.142Z,34.80
2023-08-17T07:32:15.024Z,34.93
2023-08-17T07:34:27.955Z,35.05
2023-08-17T07:36:51.180Z,35.19
2023-08-17T07:39:04.046Z,35.23
2023-08-17T07:41:16.720Z,35.25
2023-08-17T07:43:35.019Z,35.45
2023-08-17T07:45:48.062Z,35.41
2023-08-17T07:48:00.590Z,35.59
2023-08-17T07:50:13.916Z,35.57
2023-08-17T07:52:29.201Z,35.84
2023-08-17T07:54:41.674Z,35.87
2023-08-17T07:56:54.210Z,36.07
2023-08-17T07:59:06.922Z,36.10
2023-08-17T08:01:20.465Z,36.20
2023-08-17T08:03:36.494Z,36.29
2023-08-17T08:05:48.931Z,36.59
2023-08-17T08:08:02.117Z,36.51
2023-08-17T08:10:15.723Z,36.58
2023-08-17T08:12:34.196Z,36.62
2023-08-17T08:14:51.483Z,36.88
2023-08-17T08:17:11.915Z,37.02
2023-08-17T08:19:35.066Z,37.00
2023-08-17T08:21:48.216Z,37.21
2023-08-17T08:24:00.766Z,37.19
2023-08-17T08:26:16.368Z,37.57
2023-08-17T08:28:29.239Z,37.99
2023-08-17T08:30:44.372Z,38.25
2023-08-17T08:33:08.895Z,38.48
2023-08-17T08:35:26.933Z,38.69
2023-08-17T08:37:42.855Z,38.49
2023-08-17T08:39:59.693Z,38.54
2023-08-17T08:42:12.254Z,38.49
2023-08-17T08:44:25.270Z,38.54
2023-08-17T08:46:44.279Z,38.87
2023-08-17T08:48:58.779Z,38.97
2023-08-17T08:51:21.031Z,39.25
2023-08-17T08:53:41.475Z,39.28
2023-08-17T08:56:02.511Z,39.25
2023-08-17T08:58:19.890Z,39.24
2023-08-17T09:00:33.980Z,39.46
2023-08-17T09:02:51.408Z,39.63
2023-08-17T09:05:04.602Z,39.70
2023-08-17T09:07:30.003Z,39.62
2023-08-17T09:09:46.054Z,39.81
2023-08-17T09:11:59.220Z,39.94
2023-08-17T09:14:13.016Z,39.81
2023-08-17T09:16:36.738Z,40.02
2023-08-17T09:18:59.138Z,39.92
2023-08-17T09:21:23.756Z,40.13
2023-08-17T09:23:37.726Z,40.22
2023-08-17T09:25:56.975Z,40.28
2023-08-17T09:28:15.079Z,40.34
2023-08-17T09:30:27.738Z,40.27
2023-08-17T09:32:43.027Z,40.65
2023-08-17T09:34:58.853Z,40.59
2023-08-17T09:37:12.421Z,40.69
2023-08-17T09:39:25.141Z,40.90
2023-08-17T09:41:48.169Z,41.07
2023-08-17T09:44:01.769Z,41.15
2023-08-17T09:46:14.658Z,41.35
2023-08-17T09:48:33.053Z,41.49
2023-08-17T09:50:46.230Z,41.64
2023-08-17T09:53:01.480Z,41.78
2023-08-17T09:55:16.898Z,41.89
2023-08-17T09:57:31.475Z,41.99
2023-08-17T09:59:44.393Z,42.10
2023-08-17T10:01:58.637Z,42.18
2023-08-17T10:04:12.672Z,42.23
2023-08-17T10:06:31.998Z,42.24
2023-08-17T10:08:50.784Z,42.46
2023-08-17T10:11:07.063Z,42.58
2023-08-17T10:13:29.125Z,42.73
2023-08-17T10:15:49.237Z,42.84
2023-08-17T10:20:28.763Z,43.46
2023-08-17T10:22:49.340Z,43.74
2023-08-17T10:25:02.947Z,43.77
2023-08-17T10:27:17.561Z,44.12
2023-08-17T10:29:31.013Z,44.61
2023-08-17T10:31:43.638Z,44.58
2023-08-17T10:33:56.192Z,44.79
2023-08-17T10:36:09.875Z,45.05
2023-08-17T10:38:22.726Z,45.02
2023-08-17T10:40:39.404Z,44.95
2023-08-17T10:43:00.964Z,45.00
2023-08-17T10:45:23.751Z,45.09
2023-08-17T10:47:37.725Z,45.05
2023-08-17T10:49:52.099Z,45.16
2023-08-17T10:52:11.524Z,45.19
2023-08-17T10:54:39.771Z,45.44
2023-08-17T10:56:52.343Z,45.45
2023-08-17T10:59:28.018Z,45.48
2023-08-17T11:01:43.242Z,45.67
2023-08-17T11:04:16.315Z,45.81
2023-08-17T11:06:28.617Z,45.88
2023-08-17T11:08:43.490Z,45.87
2023-08-17T11:11:06.947Z,45.96
2023-08-17T11:13:20.641Z,46.05
2023-08-17T11:15:47.011Z,46.10
2023-08-17T11:17:59.764Z,46.30
2023-08-17T11:20:15.567Z,46.36
2023-08-17T11:22:28.225Z,46.47
2023-08-17T11:24:44.521Z,46.43
2023-08-17T11:26:58.458Z,46.59
2023-08-17T11:29:12.015Z,46.66
2023-08-17T11:31:24.264Z,46.65
2023-08-17T11:33:37.951Z,46.63
2023-08-17T11:35:52.186Z,46.77
2023-08-17T11:38:08.144Z,46.89
2023-08-17T11:40:21.665Z,46.96
2023-08-17T11:42:34.238Z,46.96
2023-08-17T11:44:47.179Z,47.01
2023-08-17T11:47:00.261Z,47.04
2023-08-17T11:49:13.056Z,47.10
2023-08-17T11:51:34.899Z,47.07
2023-08-17T11:53:49.887Z,47.15
2023-08-17T11:56:06.807Z,47.16
2023-08-17T11:58:21.739Z,47.27
2023-08-17T12:00:39.152Z,47.32
2023-08-17T12:02:53.756Z,47.43
2023-08-17T12:05:11.431Z,47.50
2023-08-17T12:07:25.009Z,47.62
2023-08-17T12:09:38.915Z,47.75
2023-08-17T12:11:51.213Z,47.74
2023-08-17T12:14:03.511Z,47.89
2023-08-17T12:16:21.218Z,47.91
2023-08-17T12:18:36.162Z,48.13
2023-08-17T12:20:56.241Z,47.98
2023-08-17T12:23:09.767Z,48.13
2023-08-17T12:25:25.021Z,48.33
2023-08-17T12:27:38.617Z,48.42
2023-08-17T12:29:57.584Z,48.52
2023-08-17T12:32:11.473Z,48.53
2023-08-17T12:34:24.011Z,48.57
2023-08-17T12:36:37.416Z,48.58
2023-08-17T12:38:50.232Z,48.63
2023-08-17T12:41:07.053Z,48.83
2023-08-17T12:43:19.643Z,48.83
2023-08-17T12:45:33.185Z,48.97
2023-08-17T12:47:46.440Z,48.97
2023-08-17T12:49:59.180Z,49.15
2023-08-17T12:52:13.513Z,49.28
2023-08-17T12:54:26.064Z,49.33
2023-08-17T12:56:38.600Z,49.42
2023-08-17T12:58:51.004Z,49.63
2023-08-17T13:01:03.350Z,49.80
2023-08-17T13:03:17.213Z,49.89
2023-08-17T13:05:30.532Z,50.07
2023-08-17T13:07:43.798Z,50.11
2023-08-17T13:09:56.225Z,50.25
2023-08-17T13:12:09.262Z,50.35
2023-08-17T13:14:22.190Z,50.35
2023-08-17T13:16:35.390Z,50.37
2023-08-17T13:18:47.919Z,50.50
2023-08-17T13:21:00.437Z,50.46
2023-08-17T13:23:14.153Z,50.58
2023-08-17T13:25:27.154Z,50.64
2023-08-17T13:27:39.992Z,50.74
2023-08-17T13:29:52.667Z,50.94
2023-08-17T13:32:05.073Z,51.01
2023-08-17T13:34:18.919Z,51.13
2023-08-17T13:36:31.277Z,51.15
2023-08-17T13:38:45.166Z,51.21
2023-08-17T13:40:58.363Z,51.17
2023-08-17T13:43:14.318Z,51.43
2023-08-17T13:45:26.759Z,51.41
2023-08-17T13:47:39.517Z,51.44
2023-08-17T13:49:52.320Z,51.48
2023-08-17T13:52:05.160Z,51.66
2023-08-17T13:54:18.086Z,51.77
2023-08-17T13:56:31.035Z,51.87
2023-08-17T13:58:43.607Z,51.90
2023-08-17T14:00:55.953Z,52.23
2023-08-17T14:03:08.955Z,52.27
2023-08-17T14:05:21.445Z,52.41
2023-08-17T14:07:34.112Z,52.47
2023-08-17T14:09:57.893Z,52.72
2023-08-17T14:12:18.455Z,52.76
2023-08-17T14:14:31.516Z,52.73
2023-08-17T14:16:44.276Z,52.90
2023-08-17T14:18:56.908Z,52.99
2023-08-17T14:21:09.382Z,53.13
2023-08-17T14:23:21.587Z,53.20
2023-08-17T14:25:34.709Z,53.36
2023-08-17T14:27:47.476Z,53.41
2023-08-17T14:30:03.587Z,53.32
2023-08-17T14:32:16.896Z,53.31
2023-08-17T14:34:29.499Z,53.46
2023-08-17T14:36:42.164Z,53.45
2023-08-17T14:38:54.337Z,53.64
2023-08-17T14:41:08.914Z,53.44
2023-08-17T14:43:21.573Z,53.55
2023-08-17T14:45:33.971Z,53.74
2023-08-17T14:47:46.607Z,53.57
2023-08-17T14:49:59.025Z,53.61
2023-08-17T14:52:12.093Z,53.62
2023-08-17T14:54:24.321Z,53.67
2023-08-17T14:56:36.927Z,53.68
2023-08-17T14:58:49.385Z,53.79
2023-08-17T15:01:05.376Z,53.71
2023-08-17T15:03:17.720Z,53.74
2023-08-17T15:05:30.340Z,53.75
2023-08-17T15:07:43.301Z,53.73
2023-08-17T15:09:56.502Z,53.89
2023-08-17T15:12:10.218Z,54.02
2023-08-17T15:14:22.623Z,54.10
2023-08-17T15:16:35.906Z,54.12
2023-08-17T15:18:48.503Z,54.34
2023-08-17T15:21:01.348Z,54.47
2023-08-17T15:23:18.910Z,54.20
2023-08-17T15:25:31.431Z,53.80
2023-08-17T15:27:44.583Z,53.83
2023-08-17T15:29:56.959Z,53.88
2023-08-17T15:32:09.518Z,53.27
2023-08-17T15:34:21.972Z,52.42
2023-08-17T15:36:34.350Z,51.84
2023-08-17T15:38:46.663Z,51.21
2023-08-17T15:40:59.484Z,50.93
2023-08-17T15:43:12.049Z,50.77
2023-08-17T15:45:24.753Z,50.82
2023-08-17T15:47:37.514Z,50.80
2023-08-17T15:49:50.001Z,50.80
2023-08-17T15:52:05.495Z,50.97
2023-08-17T15:54:29.598Z,51.17
2023-08-17T15:56:47.920Z,51.52
2023-08-17T15:59:00.692Z,51.80
2023-08-17T16:01:13.989Z,52.15
2023-08-17T16:03:26.519Z,51.96
2023-08-17T16:05:39.079Z,51.30
2023-08-17T16:07:51.384Z,50.07
2023-08-17T16:10:03.693Z,49.24
2023-08-17T16:12:17.103Z,48.37
2023-08-17T16:14:29.370Z,47.57
2023-08-17T16:16:41.666Z,47.26
2023-08-17T16:18:53.915Z,46.92
2023-08-17T16:21:06.357Z,46.44
2023-08-17T16:23:22.419Z,46.33
2023-08-17T16:25:36.614Z,46.18
2023-08-17T16:27:48.848Z,45.74
2023-08-17T16:30:01.590Z,45.42
2023-08-17T16:32:14.557Z,44.81
2023-08-17T16:34:26.847Z,44.64
2023-08-17T16:36:39.229Z,44.59
2023-08-17T16:38:55.754Z,44.41
2023-08-17T16:41:09.977Z,44.33
2023-08-17T16:43:23.546Z,44.34
2023-08-17T16:45:36.024Z,44.40
2023-08-17T16:47:48.826Z,44.46
2023-08-17T16:50:02.910Z,44.25
2023-08-17T16:52:15.743Z,44.13
2023-08-17T16:54:28.469Z,44.46
2023-08-17T16:56:41.411Z,44.36
2023-08-17T16:58:54.149Z,44.07
2023-08-17T17:01:14.461Z,44.01
2023-08-17T17:03:28.178Z,43.95
2023-08-17T17:05:40.519Z,44.11
2023-08-17T17:07:52.773Z,44.18
2023-08-17T17:10:05.458Z,44.34
2023-08-17T17:12:18.268Z,44.31
2023-08-17T17:14:30.610Z,44.56
2023-08-17T17:16:43.309Z,44.65
2023-08-17T17:18:56.127Z,44.76
2023-08-17T17:21:10.466Z,44.96
2023-08-17T17:23:23.004Z,44.92
2023-08-17T17:25:35.927Z,45.17
2023-08-17T17:27:48.288Z,45.26
2023-08-17T17:30:00.835Z,45.27
2023-08-17T17:32:14.781Z,45.65
2023-08-17T17:34:27.356Z,45.77
2023-08-17T17:36:40.270Z,45.97
2023-08-17T17:38:53.277Z,46.13
2023-08-17T17:41:06.755Z,46.21
2023-08-17T17:43:20.103Z,46.30
2023-08-17T17:45:32.824Z,46.47
2023-08-17T17:47:45.558Z,46.45
2023-08-17T17:49:58.056Z,46.50
2023-08-17T17:52:10.754Z,46.74
2023-08-17T17:54:23.367Z,46.67
2023-08-17T17:56:46.154Z,46.49
2023-08-17T17:58:58.731Z,46.65
2023-08-17T18:01:11.858Z,46.76
2023-08-17T18:03:24.412Z,47.23
2023-08-17T18:05:37.198Z,47.35
2023-08-17T18:07:49.776Z,47.60
2023-08-17T18:10:04.603Z,47.72
2023-08-17T18:12:17.256Z,47.85
2023-08-17T18:14:29.773Z,47.99
2023-08-17T18:16:45.387Z,47.87
2023-08-17T18:18:58.418Z,48.03
2023-08-17T18:21:10.926Z,47.97
2023-08-17T18:23:23.347Z,48.02
2023-08-17T18:25:36.906Z,48.10
2023-08-17T18:27:49.962Z,47.76
2023-08-17T18:30:02.183Z,47.59
2023-08-17T18:32:14.821Z,47.36
2023-08-17T18:34:27.845Z,47.43
2023-08-17T18:36:40.006Z,47.27
2023-08-17T18:38:52.604Z,47.07
2023-08-17T18:41:12.667Z,46.96
2023-08-17T18:43:25.376Z,46.95
2023-08-17T18:45:38.098Z,47.07
2023-08-17T18:47:50.498Z,46.99
2023-08-17T18:50:03.055Z,46.96
2023-08-17T18:52:15.590Z,47.01
2023-08-17T18:54:28.098Z,46.94
2023-08-17T18:56:41.220Z,46.51
2023-08-17T18:58:53.707Z,46.64
2023-08-17T19:01:06.574Z,46.87
2023-08-17T19:03:19.214Z,47.03
2023-08-17T19:05:32.041Z,47.02
2023-08-17T19:07:44.389Z,46.75
2023-08-17T19:09:56.909Z,46.91
2023-08-17T19:12:12.636Z,46.82
2023-08-17T19:14:24.974Z,46.77
2023-08-17T19:16:37.266Z,46.82
2023-08-17T19:18:50.035Z,46.71
2023-08-17T19:21:02.793Z,46.33
2023-08-17T19:23:15.831Z,46.03
2023-08-17T19:25:28.770Z,46.09
2023-08-17T19:27:42.392Z,46.25
2023-08-17T19:29:54.855Z,46.54
2023-08-17T19:32:07.964Z,46.75
2023-08-17T19:34:20.316Z,46.98
2023-08-17T19:36:32.784Z,46.95
2023-08-17T19:38:45.328Z,46.72
2023-08-17T19:40:57.569Z,46.53
2023-08-17T19:43:10.340Z,46.31
2023-08-17T19:45:23.114Z,45.93
2023-08-17T19:47:36.103Z,45.64
2023-08-17T19:49:48.548Z,45.53
2023-08-17T19:52:01.406Z,45.21
2023-08-17T19:54:14.227Z,45.02
2023-08-17T19:56:27.340Z,44.82
2023-08-17T19:58:40.099Z,44.42
2023-08-17T20:00:52.536Z,44.14
2023-08-17T20:03:06.031Z,43.83
2023-08-17T20:05:19.157Z,43.27
2023-08-17T20:07:31.995Z,43.17
2023-08-17T20:09:44.618Z,42.61
2023-08-17T20:11:57.979Z,42.33
2023-08-17T20:14:10.995Z,42.29
2023-08-17T20:16:25.260Z,42.22
2023-08-17T20:18:38.108Z,42.17
2023-08-17T20:20:59.034Z,41.99
2023-08-17T20:23:12.071Z,42.03
2023-08-17T20:25:24.406Z,41.82
2023-08-17T20:27:36.839Z,41.88
2023-08-17T20:29:49.082Z,41.72
2023-08-17T20:32:02.080Z,41.88
2023-08-17T20:34:17.390Z,42.18
2023-08-17T20:36:29.935Z,42.18
2023-08-17T20:38:42.712Z,42.42
2023-08-17T20:40:55.592Z,42.40
2023-08-17T20:43:08.668Z,42.34
2023-08-17T20:45:21.342Z,42.39
2023-08-17T20:47:33.796Z,42.32
2023-08-17T20:49:46.035Z,42.18
2023-08-17T20:51:59.435Z,41.99
2023-08-17T20:54:12.588Z,41.75
2023-08-17T20:56:25.109Z,41.80
2023-08-17T20:58:38.230Z,41.92
2023-08-17T21:00:52.112Z,41.95
2023-08-17T21:03:04.671Z,41.61
2023-08-17T21:05:17.963Z,41.46
2023-08-17T21:07:31.289Z,41.08
2023-08-17T21:09:45.090Z,40.71
2023-08-17T21:12:00.422Z,40.83
2023-08-17T21:14:13.620Z,40.67
2023-08-17T21:16:26.282Z,40.38
2023-08-17T21:18:40.006Z,40.54
2023-08-17T21:20:52.667Z,40.61
2023-08-17T21:23:05.228Z,40.48
2023-08-17T21:25:18.605Z,40.85
2023-08-17T21:27:31.153Z,41.07
2023-08-17T21:29:43.717Z,41.00
2023-08-17T21:31:56.284Z,40.79
2023-08-17T21:34:09.582Z,40.84
2023-08-17T21:36:21.969Z,41.09
2023-08-17T21:38:35.470Z,41.03
2023-08-17T21:40:48.364Z,41.19
2023-08-17T21:43:01.240Z,41.12
2023-08-17T21:45:14.739Z,41.12
2023-08-17T21:47:27.329Z,41.18
2023-08-17T21:49:39.757Z,41.25
2023-08-17T21:51:53.214Z,41.10
2023-08-17T21:54:05.669Z,41.12
2023-08-17T21:56:18.099Z,41.15
2023-08-17T21:58:30.713Z,41.04
2023-08-17T22:00:44.570Z,40.95
2023-08-17T22:02:57.121Z,40.97
2023-08-17T22:05:10.002Z,40.85
2023-08-17T22:07:22.693Z,40.99
2023-08-17T22:09:35.488Z,41.10
2023-08-17T22:11:48.337Z,40.96
2023-08-17T22:14:00.757Z,40.88
2023-08-17T22:16:13.117Z,40.79
2023-08-17T22:18:25.406Z,40.85
2023-08-17T22:20:37.850Z,40.78
2023-08-17T22:22:51.187Z,40.64
2023-08-17T22:25:03.785Z,40.53
2023-08-17T22:27:16.580Z,40.59
2023-08-17T22:29:28.972Z,40.40
2023-08-17T22:31:44.453Z,40.28
2023-08-17T22:33:57.126Z,40.04
2023-08-17T22:36:09.480Z,40.22
2023-08-17T22:38:22.617Z,40.11
2023-08-17T22:40:35.359Z,40.05
2023-08-17T22:42:48.630Z,40.04
2023-08-17T22:45:01.533Z,39.90
2023-08-17T22:47:14.279Z,39.45
2023-08-17T22:49:26.708Z,39.42
2023-08-17T22:51:39.776Z,39.20
2023-08-17T22:53:51.985Z,39.09
2023-08-17T22:56:04.265Z,39.11
2023-08-17T22:58:17.372Z,39.01
2023-08-17T23:00:30.050Z,38.97
2023-08-17T23:02:43.153Z,38.65
2023-08-17T23:04:55.469Z,38.79
2023-08-17T23:07:07.886Z,38.72
2023-08-17T23:09:20.182Z,38.74
2023-08-17T23:11:32.523Z,38.61
2023-08-17T23:13:45.445Z,38.52
2023-08-17T23:15:58.221Z,37.74
2023-08-17T23:18:11.031Z,37.82
2023-08-17T23:20:23.576Z,37.54
2023-08-17T23:22:36.059Z,37.31
2023-08-17T23:24:48.281Z,37.42
2023-08-17T23:27:00.783Z,36.96
2023-08-17T23:29:13.576Z,35.69
2023-08-17T23:31:26.151Z,36.15
2023-08-17T23:33:38.471Z,36.18
2023-08-17T23:35:50.981Z,36.02
2023-08-17T23:38:03.601Z,35.92
2023-08-17T23:40:16.914Z,35.66
2023-08-17T23:42:29.230Z,35.66
2023-08-17T23:44:41.908Z,35.88
2023-08-17T23:46:54.694Z,35.84
2023-08-17T23:49:06.935Z,36.26
2023-08-17T23:51:19.561Z,36.43
2023-08-17T23:53:32.243Z,36.32
2023-08-17T23:55:45.163Z,36.21
2023-08-17T23:57:57.525Z,35.90
